KJAN

Jackson-Medgar Wiley Evers International Airport

Jackson, Mississippi, USA
METAR KJAN 231254Z 00000KT 10SM BKN200 12/09 A3019 RMK AO2 SLP221 T01220094
Observed Flight Rules
Oct-23 @ 12:54 UTC (an hour ago) Visual Flight Rules
Visibility Clouds
10 miles
  • Broken at 20,000' AGL
Temperatures Readings
Current 12°C / 54°F
Dewpoint 9°C / 48°F
Humidity 82%
Altimeter 30.19" Hg
Pressure 1022.1 hPa
Elevation 91
METAR KJAN 231254Z 00000KT 10SM BKN200 12/09 A3019 RMK AO2 SLP221 T01220094
Observed Flight Rules
Oct-23 @ 12:54 UTC
(an hour ago)
VFR
Clouds
  • Broken at 20,000' AGL
Temperature Dewpoint
12°C / 54°F 9°C / 48°F
Humidity Altimeter Pressure
82% 30.19" Hg 1022.1 hPa